sensor_id;sensor_type;location;lat;lon;timestamp;temperature;humidity
30063;DHT22;16889;67.864;24.990;2023-02-14T00:01:09;-4.30;99.90
30063;DHT22;16889;67.864;24.990;2023-02-14T00:05:55;-4.20;99.90
30063;DHT22;16889;67.864;24.990;2023-02-14T00:10:41;-4.10;99.90
30063;DHT22;16889;67.864;24.990;2023-02-14T00:15:27;-4.10;99.90
30063;DHT22;16889;67.864;24.990;2023-02-14T00:20:13;-4.30;99.90
30063;DHT22;16889;67.864;24.990;2023-02-14T00:24:59;-4.20;99.90
30063;DHT22;16889;67.864;24.990;2023-02-14T00:29:45;-4.10;99.90
30063;DHT22;16889;67.864;24.990;2023-02-14T00:34:30;-3.90;99.90
30063;DHT22;16889;67.864;24.990;2023-02-14T00:39:18;-3.80;99.90
30063;DHT22;16889;67.864;24.990;2023-02-14T00:44:05;-3.80;99.90
30063;DHT22;16889;67.864;24.990;2023-02-14T00:48:51;-3.80;99.90
30063;DHT22;16889;67.864;24.990;2023-02-14T00:53:38;-3.80;99.90
30063;DHT22;16889;67.864;24.990;2023-02-14T00:58:24;-3.50;99.90
30063;DHT22;16889;67.864;24.990;2023-02-14T01:03:10;-3.40;99.90
30063;DHT22;16889;67.864;24.990;2023-02-14T01:07:56;-3.10;99.90
30063;DHT22;16889;67.864;24.990;2023-02-14T01:12:42;-3.00;99.90
30063;DHT22;16889;67.864;24.990;2023-02-14T01:17:28;-3.00;99.90
30063;DHT22;16889;67.864;24.990;2023-02-14T01:22:13;-2.90;99.90
30063;DHT22;16889;67.864;24.990;2023-02-14T01:26:59;-2.80;99.90
30063;DHT22;16889;67.864;24.990;2023-02-14T01:31:45;-2.70;99.90
30063;DHT22;16889;67.864;24.990;2023-02-14T01:36:37;-2.70;99.90
30063;DHT22;16889;67.864;24.990;2023-02-14T01:41:26;-2.70;99.90
30063;DHT22;16889;67.864;24.990;2023-02-14T01:46:12;-3.10;99.90
30063;DHT22;16889;67.864;24.990;2023-02-14T01:50:58;-3.20;99.90
30063;DHT22;16889;67.864;24.990;2023-02-14T01:55:49;-3.20;99.90
30063;DHT22;16889;67.864;24.990;2023-02-14T02:00:37;-3.10;99.90
30063;DHT22;16889;67.864;24.990;2023-02-14T02:05:47;-3.00;99.90
30063;DHT22;16889;67.864;24.990;2023-02-14T02:10:34;-3.10;99.90
30063;DHT22;16889;67.864;24.990;2023-02-14T02:15:26;-3.00;99.90
30063;DHT22;16889;67.864;24.990;2023-02-14T02:40:55;-3.00;99.90
30063;DHT22;16889;67.864;24.990;2023-02-14T02:46:06;-3.10;99.90
30063;DHT22;16889;67.864;24.990;2023-02-14T02:51:23;-3.20;99.90
30063;DHT22;16889;67.864;24.990;2023-02-14T02:56:36;-3.20;99.90
30063;DHT22;16889;67.864;24.990;2023-02-14T03:01:36;-3.40;99.90
30063;DHT22;16889;67.864;24.990;2023-02-14T03:06:22;-3.30;99.90
30063;DHT22;16889;67.864;24.990;2023-02-14T03:11:10;-3.40;99.90
30063;DHT22;16889;67.864;24.990;2023-02-14T03:16:37;-3.40;99.90
30063;DHT22;16889;67.864;24.990;2023-02-14T03:21:43;-3.40;99.90
30063;DHT22;16889;67.864;24.990;2023-02-14T03:36:26;-3.70;99.90
30063;DHT22;16889;67.864;24.990;2023-02-14T03:41:19;-3.60;99.90
30063;DHT22;16889;67.864;24.990;2023-02-14T03:51:09;-3.40;99.90
30063;DHT22;16889;67.864;24.990;2023-02-14T03:56:34;-3.10;99.90
30063;DHT22;16889;67.864;24.990;2023-02-14T04:01:35;-2.90;99.90
30063;DHT22;16889;67.864;24.990;2023-02-14T04:06:22;-2.70;99.90
30063;DHT22;16889;67.864;24.990;2023-02-14T04:11:08;-2.60;99.90
30063;DHT22;16889;67.864;24.990;2023-02-14T04:15:54;-2.40;99.90
30063;DHT22;16889;67.864;24.990;2023-02-14T04:20:40;-2.30;99.90
30063;DHT22;16889;67.864;24.990;2023-02-14T04:25:26;-2.20;99.90
30063;DHT22;16889;67.864;24.990;2023-02-14T04:30:13;-2.10;99.90
30063;DHT22;16889;67.864;24.990;2023-02-14T04:35:01;-2.00;99.90
30063;DHT22;16889;67.864;24.990;2023-02-14T04:39:47;-2.00;99.90
30063;DHT22;16889;67.864;24.990;2023-02-14T04:44:33;-1.80;99.90
30063;DHT22;16889;67.864;24.990;2023-02-14T04:49:19;-1.70;99.90
30063;DHT22;16889;67.864;24.990;2023-02-14T04:54:06;-1.70;99.90
30063;DHT22;16889;67.864;24.990;2023-02-14T04:58:53;-1.80;99.90
30063;DHT22;16889;67.864;24.990;2023-02-14T05:03:39;-1.80;99.90
30063;DHT22;16889;67.864;24.990;2023-02-14T05:08:25;-1.90;99.90
30063;DHT22;16889;67.864;24.990;2023-02-14T05:13:10;-2.00;99.90
30063;DHT22;16889;67.864;24.990;2023-02-14T05:17:56;-2.10;99.90
30063;DHT22;16889;67.864;24.990;2023-02-14T05:22:46;-2.10;99.90
30063;DHT22;16889;67.864;24.990;2023-02-14T05:27:32;-2.10;99.90
30063;DHT22;16889;67.864;24.990;2023-02-14T05:32:18;-2.00;99.90
30063;DHT22;16889;67.864;24.990;2023-02-14T05:37:04;-2.00;99.90
30063;DHT22;16889;67.864;24.990;2023-02-14T05:41:50;-1.90;99.90
30063;DHT22;16889;67.864;24.990;2023-02-14T05:46:36;-1.90;99.90
30063;DHT22;16889;67.864;24.990;2023-02-14T05:51:21;-1.80;99.90
30063;DHT22;16889;67.864;24.990;2023-02-14T05:56:07;-1.90;99.90
30063;DHT22;16889;67.864;24.990;2023-02-14T06:00:55;-1.80;99.90
30063;DHT22;16889;67.864;24.990;2023-02-14T06:05:42;-1.70;99.90
30063;DHT22;16889;67.864;24.990;2023-02-14T06:10:28;-1.60;99.90
30063;DHT22;16889;67.864;24.990;2023-02-14T06:15:14;-1.70;99.90
30063;DHT22;16889;67.864;24.990;2023-02-14T06:20:00;-1.80;99.90
30063;DHT22;16889;67.864;24.990;2023-02-14T06:24:46;-1.70;99.90
30063;DHT22;16889;67.864;24.990;2023-02-14T06:29:32;-1.60;99.90
30063;DHT22;16889;67.864;24.990;2023-02-14T06:34:18;-1.70;99.90
30063;DHT22;16889;67.864;24.990;2023-02-14T06:39:04;-1.60;99.90
30063;DHT22;16889;67.864;24.990;2023-02-14T06:43:50;-1.50;99.90
30063;DHT22;16889;67.864;24.990;2023-02-14T06:48:36;-1.50;99.90
30063;DHT22;16889;67.864;24.990;2023-02-14T06:53:22;-1.40;99.90
30063;DHT22;16889;67.864;24.990;2023-02-14T06:58:08;-1.40;99.90
30063;DHT22;16889;67.864;24.990;2023-02-14T07:02:54;-1.40;99.90
30063;DHT22;16889;67.864;24.990;2023-02-14T07:07:40;-1.50;99.90
30063;DHT22;16889;67.864;24.990;2023-02-14T07:12:26;-1.50;99.90
30063;DHT22;16889;67.864;24.990;2023-02-14T07:17:12;-1.40;99.90
30063;DHT22;16889;67.864;24.990;2023-02-14T07:21:58;-1.40;99.90
30063;DHT22;16889;67.864;24.990;2023-02-14T07:26:44;-1.30;99.90
30063;DHT22;16889;67.864;24.990;2023-02-14T07:31:30;-1.30;99.90
30063;DHT22;16889;67.864;24.990;2023-02-14T07:36:16;-1.30;99.90
30063;DHT22;16889;67.864;24.990;2023-02-14T07:41:03;-1.20;99.90
30063;DHT22;16889;67.864;24.990;2023-02-14T07:45:49;-1.10;99.90
30063;DHT22;16889;67.864;24.990;2023-02-14T07:50:35;-1.20;99.90
30063;DHT22;16889;67.864;24.990;2023-02-14T07:55:22;-1.10;99.90
30063;DHT22;16889;67.864;24.990;2023-02-14T08:00:11;-1.10;99.90
30063;DHT22;16889;67.864;24.990;2023-02-14T08:04:58;-1.10;99.90
30063;DHT22;16889;67.864;24.990;2023-02-14T08:09:44;-1.10;99.90
30063;DHT22;16889;67.864;24.990;2023-02-14T08:14:31;-0.90;99.90
30063;DHT22;16889;67.864;24.990;2023-02-14T08:19:16;-0.80;99.90
30063;DHT22;16889;67.864;24.990;2023-02-14T08:24:03;-0.70;99.90
30063;DHT22;16889;67.864;24.990;2023-02-14T08:28:49;-0.70;99.90
30063;DHT22;16889;67.864;24.990;2023-02-14T08:33:35;-0.60;99.90
30063;DHT22;16889;67.864;24.990;2023-02-14T08:38:21;-0.70;99.90
30063;DHT22;16889;67.864;24.990;2023-02-14T08:43:08;-0.50;99.90
30063;DHT22;16889;67.864;24.990;2023-02-14T08:47:54;-0.30;99.90
30063;DHT22;16889;67.864;24.990;2023-02-14T08:52:44;-0.30;99.90
30063;DHT22;16889;67.864;24.990;2023-02-14T08:57:30;-0.10;99.90
30063;DHT22;16889;67.864;24.990;2023-02-14T09:02:16;-0.10;99.90
30063;DHT22;16889;67.864;24.990;2023-02-14T09:07:02;0.10;99.90
30063;DHT22;16889;67.864;24.990;2023-02-14T09:11:49;0.30;99.90
30063;DHT22;16889;67.864;24.990;2023-02-14T09:16:35;0.40;99.90
30063;DHT22;16889;67.864;24.990;2023-02-14T09:21:24;0.50;99.90
30063;DHT22;16889;67.864;24.990;2023-02-14T09:26:12;0.50;99.90
30063;DHT22;16889;67.864;24.990;2023-02-14T09:30:58;0.40;99.90
30063;DHT22;16889;67.864;24.990;2023-02-14T09:35:52;0.70;99.90
30063;DHT22;16889;67.864;24.990;2023-02-14T09:40:38;0.90;99.90
30063;DHT22;16889;67.864;24.990;2023-02-14T09:45:26;1.10;99.90
30063;DHT22;16889;67.864;24.990;2023-02-14T09:50:24;1.20;99.90
30063;DHT22;16889;67.864;24.990;2023-02-14T09:55:14;1.20;99.90
30063;DHT22;16889;67.864;24.990;2023-02-14T10:00:04;1.50;99.90
30063;DHT22;16889;67.864;24.990;2023-02-14T10:10:28;2.00;99.90
30063;DHT22;16889;67.864;24.990;2023-02-14T10:15:29;2.30;99.90
30063;DHT22;16889;67.864;24.990;2023-02-14T10:25:23;2.40;99.90
30063;DHT22;16889;67.864;24.990;2023-02-14T10:30:18;2.40;99.90
30063;DHT22;16889;67.864;24.990;2023-02-14T10:35:15;2.40;99.90
30063;DHT22;16889;67.864;24.990;2023-02-14T10:50:51;2.10;99.90
30063;DHT22;16889;67.864;24.990;2023-02-14T10:55:51;2.00;99.90
30063;DHT22;16889;67.864;24.990;2023-02-14T11:01:07;1.90;99.90
30063;DHT22;16889;67.864;24.990;2023-02-14T11:05:54;1.70;99.90
30063;DHT22;16889;67.864;24.990;2023-02-14T11:10:41;1.70;99.90
30063;DHT22;16889;67.864;24.990;2023-02-14T11:15:32;1.80;99.90
30063;DHT22;16889;67.864;24.990;2023-02-14T11:25:21;1.80;99.90
30063;DHT22;16889;67.864;24.990;2023-02-14T11:30:21;1.70;99.90
30063;DHT22;16889;67.864;24.990;2023-02-14T11:35:19;1.70;99.90
30063;DHT22;16889;67.864;24.990;2023-02-14T11:40:40;1.60;99.90
30063;DHT22;16889;67.864;24.990;2023-02-14T11:50:23;1.50;99.90
30063;DHT22;16889;67.864;24.990;2023-02-14T11:55:28;1.30;99.90
30063;DHT22;16889;67.864;24.990;2023-02-14T12:00:17;1.20;99.90
30063;DHT22;16889;67.864;24.990;2023-02-14T12:05:27;1.20;99.90
30063;DHT22;16889;67.864;24.990;2023-02-14T12:15:32;1.20;99.90
30063;DHT22;16889;67.864;24.990;2023-02-14T12:25:27;1.10;99.90
30063;DHT22;16889;67.864;24.990;2023-02-14T12:30:21;1.10;99.90
30063;DHT22;16889;67.864;24.990;2023-02-14T12:36:02;1.10;99.90
30063;DHT22;16889;67.864;24.990;2023-02-14T12:40:52;1.00;99.90
30063;DHT22;16889;67.864;24.990;2023-02-14T12:55:35;0.90;99.90
30063;DHT22;16889;67.864;24.990;2023-02-14T13:00:47;0.80;99.90
30063;DHT22;16889;67.864;24.990;2023-02-14T13:06:14;0.90;99.90
30063;DHT22;16889;67.864;24.990;2023-02-14T13:11:25;0.90;99.90
30063;DHT22;16889;67.864;24.990;2023-02-14T13:21:10;0.90;99.90
30063;DHT22;16889;67.864;24.990;2023-02-14T13:26:16;0.90;99.90
30063;DHT22;16889;67.864;24.990;2023-02-14T13:31:03;0.90;99.90
30063;DHT22;16889;67.864;24.990;2023-02-14T13:35:51;0.90;99.90
30063;DHT22;16889;67.864;24.990;2023-02-14T13:40:39;0.80;99.90
30063;DHT22;16889;67.864;24.990;2023-02-14T13:50:20;0.80;99.90
30063;DHT22;16889;67.864;24.990;2023-02-14T13:55:12;0.70;99.90
30063;DHT22;16889;67.864;24.990;2023-02-14T14:10:43;0.60;99.90
30063;DHT22;16889;67.864;24.990;2023-02-14T14:15:30;0.50;99.90
30063;DHT22;16889;67.864;24.990;2023-02-14T14:25:05;0.50;99.90
30063;DHT22;16889;67.864;24.990;2023-02-14T14:29:59;0.30;99.90
30063;DHT22;16889;67.864;24.990;2023-02-14T14:34:52;0.00;99.90
30063;DHT22;16889;67.864;24.990;2023-02-14T14:39:38;0.00;99.90
30063;DHT22;16889;67.864;24.990;2023-02-14T14:44:24;0.00;99.90
30063;DHT22;16889;67.864;24.990;2023-02-14T14:49:11;-0.10;99.90
30063;DHT22;16889;67.864;24.990;2023-02-14T14:54:06;-0.10;99.90
30063;DHT22;16889;67.864;24.990;2023-02-14T15:04:29;0.00;99.90
30063;DHT22;16889;67.864;24.990;2023-02-14T15:09:23;0.10;99.90
30063;DHT22;16889;67.864;24.990;2023-02-14T15:14:20;0.20;99.90
30063;DHT22;16889;67.864;24.990;2023-02-14T15:19:10;0.20;99.90
30063;DHT22;16889;67.864;24.990;2023-02-14T15:24:01;0.30;99.90
30063;DHT22;16889;67.864;24.990;2023-02-14T15:28:58;0.30;99.90
30063;DHT22;16889;67.864;24.990;2023-02-14T15:33:44;0.40;99.90
30063;DHT22;16889;67.864;24.990;2023-02-14T15:38:34;0.50;99.90
30063;DHT22;16889;67.864;24.990;2023-02-14T15:43:30;0.50;99.90
30063;DHT22;16889;67.864;24.990;2023-02-14T15:48:27;0.60;99.90
30063;DHT22;16889;67.864;24.990;2023-02-14T15:53:31;0.70;99.90
30063;DHT22;16889;67.864;24.990;2023-02-14T15:58:21;0.60;99.90
30063;DHT22;16889;67.864;24.990;2023-02-14T16:03:12;0.40;99.90
30063;DHT22;16889;67.864;24.990;2023-02-14T16:08:05;0.40;99.90
30063;DHT22;16889;67.864;24.990;2023-02-14T16:13:03;0.30;99.90
30063;DHT22;16889;67.864;24.990;2023-02-14T16:17:51;0.40;99.90
30063;DHT22;16889;67.864;24.990;2023-02-14T16:22:37;0.50;99.90
30063;DHT22;16889;67.864;24.990;2023-02-14T16:27:23;0.50;99.90
30063;DHT22;16889;67.864;24.990;2023-02-14T16:32:18;0.60;99.90
30063;DHT22;16889;67.864;24.990;2023-02-14T16:37:07;0.60;99.90
30063;DHT22;16889;67.864;24.990;2023-02-14T16:41:55;0.80;99.90
30063;DHT22;16889;67.864;24.990;2023-02-14T16:46:41;0.90;99.90
30063;DHT22;16889;67.864;24.990;2023-02-14T16:51:30;0.90;99.90
30063;DHT22;16889;67.864;24.990;2023-02-14T16:56:25;0.90;99.90
30063;DHT22;16889;67.864;24.990;2023-02-14T17:01:14;0.90;99.90
30063;DHT22;16889;67.864;24.990;2023-02-14T17:06:01;1.00;99.90
30063;DHT22;16889;67.864;24.990;2023-02-14T17:10:47;1.00;99.90
30063;DHT22;16889;67.864;24.990;2023-02-14T17:15:34;1.10;99.90
30063;DHT22;16889;67.864;24.990;2023-02-14T17:20:20;1.00;99.90
30063;DHT22;16889;67.864;24.990;2023-02-14T17:25:07;1.00;99.90
30063;DHT22;16889;67.864;24.990;2023-02-14T17:29:53;1.00;99.90
30063;DHT22;16889;67.864;24.990;2023-02-14T17:34:39;1.00;99.90
30063;DHT22;16889;67.864;24.990;2023-02-14T17:39:25;0.90;99.90
30063;DHT22;16889;67.864;24.990;2023-02-14T17:44:11;0.90;99.90
30063;DHT22;16889;67.864;24.990;2023-02-14T17:48:58;0.80;99.90
30063;DHT22;16889;67.864;24.990;2023-02-14T17:53:47;0.80;99.90
30063;DHT22;16889;67.864;24.990;2023-02-14T17:58:34;0.70;99.90
30063;DHT22;16889;67.864;24.990;2023-02-14T18:03:20;0.70;99.90
30063;DHT22;16889;67.864;24.990;2023-02-14T18:08:07;0.80;99.90
30063;DHT22;16889;67.864;24.990;2023-02-14T18:12:53;0.80;99.90
30063;DHT22;16889;67.864;24.990;2023-02-14T18:17:39;0.90;99.90
30063;DHT22;16889;67.864;24.990;2023-02-14T18:22:25;0.90;99.90
30063;DHT22;16889;67.864;24.990;2023-02-14T18:27:12;0.90;99.90
30063;DHT22;16889;67.864;24.990;2023-02-14T18:32:00;1.00;99.90
30063;DHT22;16889;67.864;24.990;2023-02-14T18:36:46;1.00;99.90
30063;DHT22;16889;67.864;24.990;2023-02-14T18:41:32;1.00;99.90
30063;DHT22;16889;67.864;24.990;2023-02-14T18:46:32;1.00;99.90
30063;DHT22;16889;67.864;24.990;2023-02-14T18:51:22;1.00;99.90
30063;DHT22;16889;67.864;24.990;2023-02-14T18:56:13;1.00;99.90
30063;DHT22;16889;67.864;24.990;2023-02-14T19:01:21;0.90;99.90
30063;DHT22;16889;67.864;24.990;2023-02-14T19:06:08;0.90;99.90
30063;DHT22;16889;67.864;24.990;2023-02-14T19:10:54;0.90;99.90
30063;DHT22;16889;67.864;24.990;2023-02-14T19:15:40;0.90;99.90
30063;DHT22;16889;67.864;24.990;2023-02-14T19:20:26;0.80;99.90
30063;DHT22;16889;67.864;24.990;2023-02-14T19:25:12;0.80;99.90
30063;DHT22;16889;67.864;24.990;2023-02-14T19:29:59;0.70;99.90
30063;DHT22;16889;67.864;24.990;2023-02-14T19:34:45;0.70;99.90
30063;DHT22;16889;67.864;24.990;2023-02-14T19:39:33;0.70;99.90
30063;DHT22;16889;67.864;24.990;2023-02-14T19:44:19;0.70;99.90
30063;DHT22;16889;67.864;24.990;2023-02-14T19:49:05;0.70;99.90
30063;DHT22;16889;67.864;24.990;2023-02-14T19:53:51;0.70;99.90
30063;DHT22;16889;67.864;24.990;2023-02-14T19:58:38;0.70;99.90
30063;DHT22;16889;67.864;24.990;2023-02-14T20:03:25;0.60;99.90
30063;DHT22;16889;67.864;24.990;2023-02-14T20:08:11;0.50;99.90
30063;DHT22;16889;67.864;24.990;2023-02-14T20:12:57;0.50;99.90
30063;DHT22;16889;67.864;24.990;2023-02-14T20:17:43;0.40;99.90
30063;DHT22;16889;67.864;24.990;2023-02-14T20:22:29;0.30;99.90
30063;DHT22;16889;67.864;24.990;2023-02-14T20:27:15;0.10;99.90
30063;DHT22;16889;67.864;24.990;2023-02-14T20:32:01;0.00;99.90
30063;DHT22;16889;67.864;24.990;2023-02-14T20:36:49;-0.10;99.90
30063;DHT22;16889;67.864;24.990;2023-02-14T20:41:39;-0.20;99.90
30063;DHT22;16889;67.864;24.990;2023-02-14T20:46:25;-0.20;99.90
30063;DHT22;16889;67.864;24.990;2023-02-14T20:51:14;-0.20;99.90
30063;DHT22;16889;67.864;24.990;2023-02-14T20:56:00;-0.20;99.90
30063;DHT22;16889;67.864;24.990;2023-02-14T21:00:46;-0.20;99.90
30063;DHT22;16889;67.864;24.990;2023-02-14T21:05:33;-0.20;99.90
30063;DHT22;16889;67.864;24.990;2023-02-14T21:10:19;-0.20;99.90
30063;DHT22;16889;67.864;24.990;2023-02-14T21:15:06;-0.20;99.90
30063;DHT22;16889;67.864;24.990;2023-02-14T21:19:52;-0.30;99.90
30063;DHT22;16889;67.864;24.990;2023-02-14T21:24:39;-0.30;99.90
30063;DHT22;16889;67.864;24.990;2023-02-14T21:29:25;-0.30;99.90
30063;DHT22;16889;67.864;24.990;2023-02-14T21:34:13;-0.40;99.90
30063;DHT22;16889;67.864;24.990;2023-02-14T21:39:01;-0.40;99.90
30063;DHT22;16889;67.864;24.990;2023-02-14T21:43:49;-0.60;99.90
30063;DHT22;16889;67.864;24.990;2023-02-14T21:48:40;-0.60;99.90
30063;DHT22;16889;67.864;24.990;2023-02-14T21:53:45;-0.70;99.90
30063;DHT22;16889;67.864;24.990;2023-02-14T21:58:31;-0.70;99.90
30063;DHT22;16889;67.864;24.990;2023-02-14T22:03:17;-0.80;99.90
30063;DHT22;16889;67.864;24.990;2023-02-14T22:08:03;-0.80;99.90
30063;DHT22;16889;67.864;24.990;2023-02-14T22:12:49;-0.80;99.90
30063;DHT22;16889;67.864;24.990;2023-02-14T22:17:35;-0.80;99.90
30063;DHT22;16889;67.864;24.990;2023-02-14T22:22:22;-0.90;99.90
30063;DHT22;16889;67.864;24.990;2023-02-14T22:27:08;-1.00;99.90
30063;DHT22;16889;67.864;24.990;2023-02-14T22:31:54;-1.00;99.90
30063;DHT22;16889;67.864;24.990;2023-02-14T22:36:40;-1.00;99.90
30063;DHT22;16889;67.864;24.990;2023-02-14T22:41:26;-1.00;99.90
30063;DHT22;16889;67.864;24.990;2023-02-14T22:46:14;-1.00;99.90
30063;DHT22;16889;67.864;24.990;2023-02-14T22:56:12;-1.00;99.90
30063;DHT22;16889;67.864;24.990;2023-02-14T23:00:58;-1.10;99.90
30063;DHT22;16889;67.864;24.990;2023-02-14T23:05:44;-1.10;99.90
30063;DHT22;16889;67.864;24.990;2023-02-14T23:10:30;-1.30;99.90
30063;DHT22;16889;67.864;24.990;2023-02-14T23:15:16;-1.50;99.90
30063;DHT22;16889;67.864;24.990;2023-02-14T23:20:21;-1.40;99.90
30063;DHT22;16889;67.864;24.990;2023-02-14T23:25:25;-1.40;99.90
30063;DHT22;16889;67.864;24.990;2023-02-14T23:30:14;-1.40;99.90
30063;DHT22;16889;67.864;24.990;2023-02-14T23:35:01;-1.40;99.90
30063;DHT22;16889;67.864;24.990;2023-02-14T23:39:46;-1.40;99.90
30063;DHT22;16889;67.864;24.990;2023-02-14T23:44:33;-1.30;99.90
30063;DHT22;16889;67.864;24.990;2023-02-14T23:49:20;-1.30;99.90
30063;DHT22;16889;67.864;24.990;2023-02-14T23:54:07;-1.20;99.90
30063;DHT22;16889;67.864;24.990;2023-02-14T23:58:53;-1.30;99.90
